sensor_id;sensor_type;location;lat;lon;timestamp;temperature;humidity
59660;DHT22;45534;52.690;6.268;2022-11-25T00:00:46;7.50;99.90
59660;DHT22;45534;52.690;6.268;2022-11-25T00:03:11;7.60;99.90
59660;DHT22;45534;52.690;6.268;2022-11-25T00:05:37;7.60;99.90
59660;DHT22;45534;52.690;6.268;2022-11-25T00:08:03;7.60;99.90
59660;DHT22;45534;52.690;6.268;2022-11-25T00:10:28;7.60;99.90
59660;DHT22;45534;52.690;6.268;2022-11-25T00:12:54;7.60;99.90
59660;DHT22;45534;52.690;6.268;2022-11-25T00:15:20;7.70;99.90
59660;DHT22;45534;52.690;6.268;2022-11-25T00:17:45;7.70;99.90
59660;DHT22;45534;52.690;6.268;2022-11-25T00:20:11;7.70;99.90
59660;DHT22;45534;52.690;6.268;2022-11-25T00:22:37;7.70;99.90
59660;DHT22;45534;52.690;6.268;2022-11-25T00:25:03;7.80;99.90
59660;DHT22;45534;52.690;6.268;2022-11-25T00:27:29;7.70;99.90
59660;DHT22;45534;52.690;6.268;2022-11-25T00:29:54;7.70;99.90
59660;DHT22;45534;52.690;6.268;2022-11-25T00:32:20;7.80;99.90
59660;DHT22;45534;52.690;6.268;2022-11-25T00:34:46;7.80;99.90
59660;DHT22;45534;52.690;6.268;2022-11-25T00:37:12;7.80;99.90
59660;DHT22;45534;52.690;6.268;2022-11-25T00:39:37;7.80;99.90
59660;DHT22;45534;52.690;6.268;2022-11-25T00:42:03;7.80;99.90
59660;DHT22;45534;52.690;6.268;2022-11-25T00:44:47;7.70;99.90
59660;DHT22;45534;52.690;6.268;2022-11-25T00:47:18;7.70;99.90
59660;DHT22;45534;52.690;6.268;2022-11-25T00:49:49;7.70;99.90
59660;DHT22;45534;52.690;6.268;2022-11-25T00:52:23;7.70;99.90
59660;DHT22;45534;52.690;6.268;2022-11-25T00:54:50;7.70;99.90
59660;DHT22;45534;52.690;6.268;2022-11-25T00:57:18;7.70;99.90
59660;DHT22;45534;52.690;6.268;2022-11-25T00:59:44;7.70;99.90
59660;DHT22;45534;52.690;6.268;2022-11-25T01:02:11;7.70;99.90
59660;DHT22;45534;52.690;6.268;2022-11-25T01:04:37;7.70;99.90
59660;DHT22;45534;52.690;6.268;2022-11-25T01:07:03;7.70;99.90
59660;DHT22;45534;52.690;6.268;2022-11-25T01:09:30;7.80;99.90
59660;DHT22;45534;52.690;6.268;2022-11-25T01:11:56;7.70;99.90
59660;DHT22;45534;52.690;6.268;2022-11-25T01:14:22;7.70;99.90
59660;DHT22;45534;52.690;6.268;2022-11-25T01:16:48;7.70;99.90
59660;DHT22;45534;52.690;6.268;2022-11-25T01:19:15;7.80;99.90
59660;DHT22;45534;52.690;6.268;2022-11-25T01:21:41;7.80;99.90
59660;DHT22;45534;52.690;6.268;2022-11-25T01:24:08;7.80;99.90
59660;DHT22;45534;52.690;6.268;2022-11-25T01:26:35;7.80;99.90
59660;DHT22;45534;52.690;6.268;2022-11-25T01:29:06;7.80;99.90
59660;DHT22;45534;52.690;6.268;2022-11-25T01:31:34;7.70;99.90
59660;DHT22;45534;52.690;6.268;2022-11-25T01:34:05;7.70;99.90
59660;DHT22;45534;52.690;6.268;2022-11-25T01:36:31;7.70;99.90
59660;DHT22;45534;52.690;6.268;2022-11-25T01:38:58;7.70;99.90
59660;DHT22;45534;52.690;6.268;2022-11-25T01:41:27;7.60;99.90
59660;DHT22;45534;52.690;6.268;2022-11-25T01:44:30;7.60;99.90
59660;DHT22;45534;52.690;6.268;2022-11-25T01:47:11;7.60;99.90
59660;DHT22;45534;52.690;6.268;2022-11-25T01:49:44;7.60;99.90
59660;DHT22;45534;52.690;6.268;2022-11-25T01:52:12;7.60;99.90
59660;DHT22;45534;52.690;6.268;2022-11-25T01:57:37;7.60;99.90
59660;DHT22;45534;52.690;6.268;2022-11-25T02:00:06;7.50;99.90
59660;DHT22;45534;52.690;6.268;2022-11-25T02:02:32;7.50;99.90
59660;DHT22;45534;52.690;6.268;2022-11-25T02:04:59;7.60;99.90
59660;DHT22;45534;52.690;6.268;2022-11-25T02:07:35;7.50;99.90
59660;DHT22;45534;52.690;6.268;2022-11-25T02:10:05;7.50;99.90
59660;DHT22;45534;52.690;6.268;2022-11-25T02:12:36;7.50;99.90
59660;DHT22;45534;52.690;6.268;2022-11-25T02:15:04;7.50;99.90
59660;DHT22;45534;52.690;6.268;2022-11-25T02:17:30;7.60;99.90
59660;DHT22;45534;52.690;6.268;2022-11-25T02:22:43;7.60;99.90
59660;DHT22;45534;52.690;6.268;2022-11-25T02:25:22;7.60;99.90
59660;DHT22;45534;52.690;6.268;2022-11-25T02:27:55;7.60;99.90
59660;DHT22;45534;52.690;6.268;2022-11-25T02:30:22;7.60;99.90
59660;DHT22;45534;52.690;6.268;2022-11-25T02:32:48;7.60;99.90
59660;DHT22;45534;52.690;6.268;2022-11-25T02:35:24;7.60;99.90
59660;DHT22;45534;52.690;6.268;2022-11-25T02:37:50;7.60;99.90
59660;DHT22;45534;52.690;6.268;2022-11-25T02:40:16;7.60;99.90
59660;DHT22;45534;52.690;6.268;2022-11-25T02:42:44;7.60;99.90
59660;DHT22;45534;52.690;6.268;2022-11-25T02:45:12;7.60;99.90
59660;DHT22;45534;52.690;6.268;2022-11-25T02:47:39;7.60;99.90
59660;DHT22;45534;52.690;6.268;2022-11-25T02:50:06;7.70;99.90
59660;DHT22;45534;52.690;6.268;2022-11-25T02:52:32;7.70;99.90
59660;DHT22;45534;52.690;6.268;2022-11-25T02:54:57;7.70;99.90
59660;DHT22;45534;52.690;6.268;2022-11-25T02:57:23;7.70;99.90
59660;DHT22;45534;52.690;6.268;2022-11-25T02:59:48;7.70;99.90
59660;DHT22;45534;52.690;6.268;2022-11-25T03:02:14;7.70;99.90
59660;DHT22;45534;52.690;6.268;2022-11-25T03:04:40;7.70;99.90
59660;DHT22;45534;52.690;6.268;2022-11-25T03:07:05;7.70;99.90
59660;DHT22;45534;52.690;6.268;2022-11-25T03:09:31;7.70;99.90
59660;DHT22;45534;52.690;6.268;2022-11-25T03:11:57;7.70;99.90
59660;DHT22;45534;52.690;6.268;2022-11-25T03:14:41;7.80;99.90
59660;DHT22;45534;52.690;6.268;2022-11-25T03:17:06;7.80;99.90
59660;DHT22;45534;52.690;6.268;2022-11-25T03:19:32;7.80;99.90
59660;DHT22;45534;52.690;6.268;2022-11-25T03:21:57;7.80;99.90
59660;DHT22;45534;52.690;6.268;2022-11-25T03:24:23;7.80;99.90
59660;DHT22;45534;52.690;6.268;2022-11-25T03:26:49;7.80;99.90
59660;DHT22;45534;52.690;6.268;2022-11-25T03:29:14;7.80;99.90
59660;DHT22;45534;52.690;6.268;2022-11-25T03:31:40;7.80;99.90
59660;DHT22;45534;52.690;6.268;2022-11-25T03:34:06;7.80;99.90
59660;DHT22;45534;52.690;6.268;2022-11-25T03:36:31;7.80;99.90
59660;DHT22;45534;52.690;6.268;2022-11-25T03:38:57;7.80;99.90
59660;DHT22;45534;52.690;6.268;2022-11-25T03:41:22;7.90;99.90
59660;DHT22;45534;52.690;6.268;2022-11-25T03:43:48;7.90;99.90
59660;DHT22;45534;52.690;6.268;2022-11-25T03:46:14;7.90;99.90
59660;DHT22;45534;52.690;6.268;2022-11-25T03:48:40;7.90;99.90
59660;DHT22;45534;52.690;6.268;2022-11-25T03:51:05;7.90;99.90
59660;DHT22;45534;52.690;6.268;2022-11-25T03:53:31;7.90;99.90
59660;DHT22;45534;52.690;6.268;2022-11-25T03:55:57;7.90;99.90
59660;DHT22;45534;52.690;6.268;2022-11-25T03:58:22;7.90;99.90
59660;DHT22;45534;52.690;6.268;2022-11-25T04:00:48;7.90;99.90
59660;DHT22;45534;52.690;6.268;2022-11-25T04:03:14;7.90;99.90
59660;DHT22;45534;52.690;6.268;2022-11-25T04:05:40;8.00;99.90
59660;DHT22;45534;52.690;6.268;2022-11-25T04:08:06;8.00;99.90
59660;DHT22;45534;52.690;6.268;2022-11-25T04:10:31;8.00;99.90
59660;DHT22;45534;52.690;6.268;2022-11-25T04:12:57;8.00;99.90
59660;DHT22;45534;52.690;6.268;2022-11-25T04:15:23;8.00;99.90
59660;DHT22;45534;52.690;6.268;2022-11-25T04:17:48;8.00;99.90
59660;DHT22;45534;52.690;6.268;2022-11-25T04:20:14;8.00;99.90
59660;DHT22;45534;52.690;6.268;2022-11-25T04:22:41;8.00;99.90
59660;DHT22;45534;52.690;6.268;2022-11-25T04:25:07;8.00;99.90
59660;DHT22;45534;52.690;6.268;2022-11-25T04:27:33;8.00;99.90
59660;DHT22;45534;52.690;6.268;2022-11-25T04:29:59;8.00;99.90
59660;DHT22;45534;52.690;6.268;2022-11-25T04:32:25;8.00;99.90
59660;DHT22;45534;52.690;6.268;2022-11-25T04:34:51;8.00;99.90
59660;DHT22;45534;52.690;6.268;2022-11-25T04:37:16;8.00;99.90
59660;DHT22;45534;52.690;6.268;2022-11-25T04:39:42;8.00;99.90
59660;DHT22;45534;52.690;6.268;2022-11-25T04:42:08;8.00;99.90
59660;DHT22;45534;52.690;6.268;2022-11-25T04:44:52;8.10;99.90
59660;DHT22;45534;52.690;6.268;2022-11-25T04:47:17;8.10;99.90
59660;DHT22;45534;52.690;6.268;2022-11-25T04:49:43;8.10;99.90
59660;DHT22;45534;52.690;6.268;2022-11-25T04:52:09;8.10;99.90
59660;DHT22;45534;52.690;6.268;2022-11-25T04:54:34;8.10;99.90
59660;DHT22;45534;52.690;6.268;2022-11-25T04:57:00;8.10;99.90
59660;DHT22;45534;52.690;6.268;2022-11-25T04:59:26;8.10;99.90
59660;DHT22;45534;52.690;6.268;2022-11-25T05:02:05;8.10;99.90
59660;DHT22;45534;52.690;6.268;2022-11-25T05:04:30;8.10;99.90
59660;DHT22;45534;52.690;6.268;2022-11-25T05:06:56;8.10;99.90
59660;DHT22;45534;52.690;6.268;2022-11-25T05:09:22;8.10;99.90
59660;DHT22;45534;52.690;6.268;2022-11-25T05:11:48;8.10;99.90
59660;DHT22;45534;52.690;6.268;2022-11-25T05:14:14;8.10;99.90
59660;DHT22;45534;52.690;6.268;2022-11-25T05:16:39;8.20;99.90
59660;DHT22;45534;52.690;6.268;2022-11-25T05:19:05;8.20;99.90
59660;DHT22;45534;52.690;6.268;2022-11-25T05:21:31;8.20;99.90
59660;DHT22;45534;52.690;6.268;2022-11-25T05:23:57;8.20;99.90
59660;DHT22;45534;52.690;6.268;2022-11-25T05:26:22;8.20;99.90
59660;DHT22;45534;52.690;6.268;2022-11-25T05:28:48;8.20;99.90
59660;DHT22;45534;52.690;6.268;2022-11-25T05:31:14;8.20;99.90
59660;DHT22;45534;52.690;6.268;2022-11-25T05:33:39;8.20;99.90
59660;DHT22;45534;52.690;6.268;2022-11-25T05:36:05;8.30;99.90
59660;DHT22;45534;52.690;6.268;2022-11-25T05:38:31;8.30;99.90
59660;DHT22;45534;52.690;6.268;2022-11-25T05:41:04;8.30;99.90
59660;DHT22;45534;52.690;6.268;2022-11-25T05:43:30;8.30;99.90
59660;DHT22;45534;52.690;6.268;2022-11-25T05:45:55;8.30;99.90
59660;DHT22;45534;52.690;6.268;2022-11-25T05:48:21;8.30;99.90
59660;DHT22;45534;52.690;6.268;2022-11-25T05:50:47;8.30;99.90
59660;DHT22;45534;52.690;6.268;2022-11-25T05:53:13;8.30;99.90
59660;DHT22;45534;52.690;6.268;2022-11-25T05:55:51;8.30;99.90
59660;DHT22;45534;52.690;6.268;2022-11-25T05:58:17;8.30;99.90
59660;DHT22;45534;52.690;6.268;2022-11-25T06:00:43;8.30;99.90
59660;DHT22;45534;52.690;6.268;2022-11-25T06:03:09;8.30;99.90
59660;DHT22;45534;52.690;6.268;2022-11-25T06:05:34;8.30;99.90
59660;DHT22;45534;52.690;6.268;2022-11-25T06:08:00;8.30;99.90
59660;DHT22;45534;52.690;6.268;2022-11-25T06:10:26;8.30;99.90
59660;DHT22;45534;52.690;6.268;2022-11-25T06:12:51;8.30;99.90
59660;DHT22;45534;52.690;6.268;2022-11-25T06:15:18;8.30;99.90
59660;DHT22;45534;52.690;6.268;2022-11-25T06:17:43;8.30;99.90
59660;DHT22;45534;52.690;6.268;2022-11-25T06:20:09;8.30;99.90
59660;DHT22;45534;52.690;6.268;2022-11-25T06:22:35;8.30;99.90
59660;DHT22;45534;52.690;6.268;2022-11-25T06:25:01;8.30;99.90
59660;DHT22;45534;52.690;6.268;2022-11-25T06:27:26;8.20;99.90
59660;DHT22;45534;52.690;6.268;2022-11-25T06:29:52;8.20;99.90
59660;DHT22;45534;52.690;6.268;2022-11-25T06:32:18;8.20;99.90
59660;DHT22;45534;52.690;6.268;2022-11-25T06:34:43;8.10;99.90
59660;DHT22;45534;52.690;6.268;2022-11-25T06:37:09;8.10;99.90
59660;DHT22;45534;52.690;6.268;2022-11-25T06:39:35;8.00;99.90
59660;DHT22;45534;52.690;6.268;2022-11-25T06:42:00;7.90;99.90
59660;DHT22;45534;52.690;6.268;2022-11-25T06:44:27;7.80;99.90
59660;DHT22;45534;52.690;6.268;2022-11-25T06:46:53;7.80;99.90
59660;DHT22;45534;52.690;6.268;2022-11-25T06:49:18;7.80;99.90
59660;DHT22;45534;52.690;6.268;2022-11-25T06:51:44;7.70;99.90
59660;DHT22;45534;52.690;6.268;2022-11-25T06:54:10;7.70;99.90
59660;DHT22;45534;52.690;6.268;2022-11-25T06:56:36;7.70;99.90
59660;DHT22;45534;52.690;6.268;2022-11-25T06:59:02;7.70;99.90
59660;DHT22;45534;52.690;6.268;2022-11-25T07:01:29;7.70;99.90
59660;DHT22;45534;52.690;6.268;2022-11-25T07:04:03;7.70;99.90
59660;DHT22;45534;52.690;6.268;2022-11-25T07:06:30;7.70;99.90
59660;DHT22;45534;52.690;6.268;2022-11-25T07:08:56;7.70;99.90
59660;DHT22;45534;52.690;6.268;2022-11-25T07:11:27;7.60;99.90
59660;DHT22;45534;52.690;6.268;2022-11-25T07:13:59;7.60;99.90
59660;DHT22;45534;52.690;6.268;2022-11-25T07:16:26;7.60;99.90
59660;DHT22;45534;52.690;6.268;2022-11-25T07:18:52;7.60;99.90
59660;DHT22;45534;52.690;6.268;2022-11-25T07:21:19;7.60;99.90
59660;DHT22;45534;52.690;6.268;2022-11-25T07:23:45;7.50;99.90
59660;DHT22;45534;52.690;6.268;2022-11-25T07:26:14;7.50;99.90
59660;DHT22;45534;52.690;6.268;2022-11-25T07:28:41;7.50;99.90
59660;DHT22;45534;52.690;6.268;2022-11-25T07:31:16;7.50;99.90
59660;DHT22;45534;52.690;6.268;2022-11-25T07:33:44;7.40;99.90
59660;DHT22;45534;52.690;6.268;2022-11-25T07:36:11;7.40;99.90
59660;DHT22;45534;52.690;6.268;2022-11-25T07:38:38;7.40;99.90
59660;DHT22;45534;52.690;6.268;2022-11-25T07:41:10;7.30;99.90
59660;DHT22;45534;52.690;6.268;2022-11-25T07:43:36;7.40;99.90
59660;DHT22;45534;52.690;6.268;2022-11-25T07:46:09;7.40;99.90
59660;DHT22;45534;52.690;6.268;2022-11-25T07:48:34;7.40;99.90
59660;DHT22;45534;52.690;6.268;2022-11-25T07:51:00;7.40;99.90
59660;DHT22;45534;52.690;6.268;2022-11-25T07:53:26;7.40;99.90
59660;DHT22;45534;52.690;6.268;2022-11-25T07:55:51;7.50;99.90
59660;DHT22;45534;52.690;6.268;2022-11-25T07:58:17;7.50;99.90
59660;DHT22;45534;52.690;6.268;2022-11-25T08:00:42;7.50;99.90
59660;DHT22;45534;52.690;6.268;2022-11-25T08:03:08;7.50;99.90
59660;DHT22;45534;52.690;6.268;2022-11-25T08:05:34;7.50;99.90
59660;DHT22;45534;52.690;6.268;2022-11-25T08:07:59;7.60;99.90
59660;DHT22;45534;52.690;6.268;2022-11-25T08:10:25;7.60;99.90
59660;DHT22;45534;52.690;6.268;2022-11-25T08:12:51;7.70;99.90
59660;DHT22;45534;52.690;6.268;2022-11-25T08:15:16;7.70;99.90
59660;DHT22;45534;52.690;6.268;2022-11-25T08:17:42;7.80;99.90
59660;DHT22;45534;52.690;6.268;2022-11-25T08:20:08;7.80;99.90
59660;DHT22;45534;52.690;6.268;2022-11-25T08:22:33;7.90;99.90
59660;DHT22;45534;52.690;6.268;2022-11-25T08:24:59;7.90;99.90
59660;DHT22;45534;52.690;6.268;2022-11-25T08:27:25;7.90;99.90
59660;DHT22;45534;52.690;6.268;2022-11-25T08:29:50;7.90;99.90
59660;DHT22;45534;52.690;6.268;2022-11-25T08:32:16;7.90;99.90
59660;DHT22;45534;52.690;6.268;2022-11-25T08:34:41;7.90;99.90
59660;DHT22;45534;52.690;6.268;2022-11-25T08:37:07;7.90;99.90
59660;DHT22;45534;52.690;6.268;2022-11-25T08:39:33;8.00;99.90
59660;DHT22;45534;52.690;6.268;2022-11-25T08:42:01;8.00;99.90
59660;DHT22;45534;52.690;6.268;2022-11-25T08:44:27;8.00;99.90
59660;DHT22;45534;52.690;6.268;2022-11-25T08:46:54;8.00;99.90
59660;DHT22;45534;52.690;6.268;2022-11-25T08:49:20;8.00;99.90
59660;DHT22;45534;52.690;6.268;2022-11-25T08:51:46;8.10;99.90
59660;DHT22;45534;52.690;6.268;2022-11-25T08:54:12;8.10;99.90
59660;DHT22;45534;52.690;6.268;2022-11-25T08:56:38;8.10;99.90
59660;DHT22;45534;52.690;6.268;2022-11-25T08:59:04;8.10;99.90
59660;DHT22;45534;52.690;6.268;2022-11-25T09:01:31;8.20;99.90
59660;DHT22;45534;52.690;6.268;2022-11-25T09:03:57;8.20;99.90
59660;DHT22;45534;52.690;6.268;2022-11-25T09:06:27;8.20;99.90
59660;DHT22;45534;52.690;6.268;2022-11-25T09:08:57;8.20;99.90
59660;DHT22;45534;52.690;6.268;2022-11-25T09:11:23;8.30;99.90
59660;DHT22;45534;52.690;6.268;2022-11-25T09:13:49;8.30;99.90
59660;DHT22;45534;52.690;6.268;2022-11-25T09:16:14;8.30;99.90
59660;DHT22;45534;52.690;6.268;2022-11-25T09:18:40;8.40;99.90
59660;DHT22;45534;52.690;6.268;2022-11-25T09:21:10;8.40;99.90
59660;DHT22;45534;52.690;6.268;2022-11-25T09:23:37;8.40;99.90
59660;DHT22;45534;52.690;6.268;2022-11-25T09:26:03;8.40;99.90
59660;DHT22;45534;52.690;6.268;2022-11-25T09:28:30;8.50;99.90
59660;DHT22;45534;52.690;6.268;2022-11-25T09:30:55;8.50;99.90
59660;DHT22;45534;52.690;6.268;2022-11-25T09:33:21;8.50;99.90
59660;DHT22;45534;52.690;6.268;2022-11-25T09:35:47;8.60;99.90
59660;DHT22;45534;52.690;6.268;2022-11-25T09:38:15;8.60;99.90
59660;DHT22;45534;52.690;6.268;2022-11-25T09:41:00;8.60;99.90
59660;DHT22;45534;52.690;6.268;2022-11-25T09:57:50;9.00;99.90
59660;DHT22;45534;52.690;6.268;2022-11-25T10:00:20;9.10;99.90
59660;DHT22;45534;52.690;6.268;2022-11-25T10:05:27;9.20;99.90
59660;DHT22;45534;52.690;6.268;2022-11-25T10:08:00;9.30;99.90
59660;DHT22;45534;52.690;6.268;2022-11-25T10:10:44;9.30;99.90
59660;DHT22;45534;52.690;6.268;2022-11-25T10:13:44;9.40;99.90
59660;DHT22;45534;52.690;6.268;2022-11-25T10:19:02;9.50;99.90
59660;DHT22;45534;52.690;6.268;2022-11-25T10:21:29;9.50;99.90
59660;DHT22;45534;52.690;6.268;2022-11-25T10:23:55;9.60;99.90
59660;DHT22;45534;52.690;6.268;2022-11-25T10:26:29;9.60;99.90
59660;DHT22;45534;52.690;6.268;2022-11-25T10:31:41;9.70;99.90
59660;DHT22;45534;52.690;6.268;2022-11-25T10:34:34;9.70;99.90
59660;DHT22;45534;52.690;6.268;2022-11-25T10:37:06;9.80;99.90
59660;DHT22;45534;52.690;6.268;2022-11-25T10:39:35;9.90;99.90
59660;DHT22;45534;52.690;6.268;2022-11-25T10:44:39;10.00;99.90
59660;DHT22;45534;52.690;6.268;2022-11-25T10:55:24;10.20;99.90
59660;DHT22;45534;52.690;6.268;2022-11-25T10:57:53;10.20;99.90
59660;DHT22;45534;52.690;6.268;2022-11-25T11:03:22;10.30;99.90
59660;DHT22;45534;52.690;6.268;2022-11-25T11:05:49;10.40;99.90
59660;DHT22;45534;52.690;6.268;2022-11-25T11:08:36;10.40;99.90
59660;DHT22;45534;52.690;6.268;2022-11-25T11:11:17;10.50;99.90
59660;DHT22;45534;52.690;6.268;2022-11-25T11:13:44;10.40;99.90
59660;DHT22;45534;52.690;6.268;2022-11-25T11:18:56;10.60;99.90
59660;DHT22;45534;52.690;6.268;2022-11-25T11:23:54;10.70;99.90
59660;DHT22;45534;52.690;6.268;2022-11-25T11:26:30;10.90;99.90
59660;DHT22;45534;52.690;6.268;2022-11-25T11:29:15;11.20;99.90
59660;DHT22;45534;52.690;6.268;2022-11-25T11:31:47;11.40;99.90
59660;DHT22;45534;52.690;6.268;2022-11-25T11:42:42;12.20;99.90
59660;DHT22;45534;52.690;6.268;2022-11-25T11:45:15;12.60;99.90
59660;DHT22;45534;52.690;6.268;2022-11-25T11:53:01;13.10;99.90
59660;DHT22;45534;52.690;6.268;2022-11-25T12:04:33;13.20;99.90
59660;DHT22;45534;52.690;6.268;2022-11-25T12:06:37;13.30;99.90
59660;DHT22;45534;52.690;6.268;2022-11-25T12:09:17;13.30;99.90
59660;DHT22;45534;52.690;6.268;2022-11-25T12:11:48;13.30;99.90
59660;DHT22;45534;52.690;6.268;2022-11-25T12:16:58;13.20;99.90
59660;DHT22;45534;52.690;6.268;2022-11-25T12:19:38;13.50;99.90
59660;DHT22;45534;52.690;6.268;2022-11-25T12:22:06;13.50;99.90
59660;DHT22;45534;52.690;6.268;2022-11-25T12:24:41;13.50;99.90
59660;DHT22;45534;52.690;6.268;2022-11-25T12:27:19;13.60;99.90
59660;DHT22;45534;52.690;6.268;2022-11-25T12:29:56;13.70;99.90
59660;DHT22;45534;52.690;6.268;2022-11-25T12:41:38;13.70;99.90
59660;DHT22;45534;52.690;6.268;2022-11-25T12:46:47;14.40;99.90
59660;DHT22;45534;52.690;6.268;2022-11-25T12:49:18;14.50;99.90
59660;DHT22;45534;52.690;6.268;2022-11-25T12:54:36;14.70;99.90
59660;DHT22;45534;52.690;6.268;2022-11-25T13:00:08;14.00;99.90
59660;DHT22;45534;52.690;6.268;2022-11-25T13:16:26;15.00;99.90
59660;DHT22;45534;52.690;6.268;2022-11-25T13:18:54;15.00;99.90
59660;DHT22;45534;52.690;6.268;2022-11-25T13:21:20;14.70;99.90
59660;DHT22;45534;52.690;6.268;2022-11-25T13:23:51;14.30;99.90
59660;DHT22;45534;52.690;6.268;2022-11-25T13:32:01;13.00;99.90
59660;DHT22;45534;52.690;6.268;2022-11-25T13:34:32;12.70;99.90
59660;DHT22;45534;52.690;6.268;2022-11-25T13:37:00;12.40;99.90
59660;DHT22;45534;52.690;6.268;2022-11-25T13:39:31;12.20;99.90
59660;DHT22;45534;52.690;6.268;2022-11-25T13:44:29;11.90;99.90
59660;DHT22;45534;52.690;6.268;2022-11-25T13:46:59;11.70;99.90
59660;DHT22;45534;52.690;6.268;2022-11-25T13:49:51;11.60;99.90
59660;DHT22;45534;52.690;6.268;2022-11-25T13:52:43;11.60;99.90
59660;DHT22;45534;52.690;6.268;2022-11-25T13:57:46;11.60;99.90
59660;DHT22;45534;52.690;6.268;2022-11-25T14:02:47;12.60;99.90
59660;DHT22;45534;52.690;6.268;2022-11-25T14:05:40;13.20;99.90
59660;DHT22;45534;52.690;6.268;2022-11-25T14:20:08;13.00;99.90
59660;DHT22;45534;52.690;6.268;2022-11-25T14:25:48;12.40;99.90
59660;DHT22;45534;52.690;6.268;2022-11-25T14:31:12;12.00;99.90
59660;DHT22;45534;52.690;6.268;2022-11-25T14:33:59;12.00;99.90
59660;DHT22;45534;52.690;6.268;2022-11-25T14:36:48;11.90;99.90
59660;DHT22;45534;52.690;6.268;2022-11-25T14:39:21;11.90;99.90
59660;DHT22;45534;52.690;6.268;2022-11-25T14:44:49;11.80;99.90
59660;DHT22;45534;52.690;6.268;2022-11-25T14:47:20;11.60;99.90
59660;DHT22;45534;52.690;6.268;2022-11-25T14:49:48;11.50;99.90
59660;DHT22;45534;52.690;6.268;2022-11-25T14:52:20;11.40;99.90
59660;DHT22;45534;52.690;6.268;2022-11-25T14:54:47;11.30;99.90
59660;DHT22;45534;52.690;6.268;2022-11-25T14:57:21;11.20;99.90
59660;DHT22;45534;52.690;6.268;2022-11-25T14:59:48;11.20;99.90
59660;DHT22;45534;52.690;6.268;2022-11-25T15:02:32;11.10;99.90
59660;DHT22;45534;52.690;6.268;2022-11-25T15:07:53;10.90;99.90
59660;DHT22;45534;52.690;6.268;2022-11-25T15:16:03;10.60;99.90
59660;DHT22;45534;52.690;6.268;2022-11-25T15:18:30;10.50;99.90
59660;DHT22;45534;52.690;6.268;2022-11-25T15:20:59;10.50;99.90
59660;DHT22;45534;52.690;6.268;2022-11-25T15:23:31;10.50;99.90
59660;DHT22;45534;52.690;6.268;2022-11-25T15:26:00;10.40;99.90
59660;DHT22;45534;52.690;6.268;2022-11-25T15:28:33;10.40;99.90
59660;DHT22;45534;52.690;6.268;2022-11-25T15:31:00;10.30;99.90
59660;DHT22;45534;52.690;6.268;2022-11-25T15:33:27;10.20;99.90
59660;DHT22;45534;52.690;6.268;2022-11-25T15:35:56;10.20;99.90
59660;DHT22;45534;52.690;6.268;2022-11-25T15:38:36;10.10;99.90
59660;DHT22;45534;52.690;6.268;2022-11-25T15:41:03;10.10;99.90
59660;DHT22;45534;52.690;6.268;2022-11-25T15:43:30;10.10;99.90
59660;DHT22;45534;52.690;6.268;2022-11-25T15:46:02;10.00;99.90
59660;DHT22;45534;52.690;6.268;2022-11-25T15:48:37;10.00;99.90
59660;DHT22;45534;52.690;6.268;2022-11-25T15:54:06;9.90;99.90
59660;DHT22;45534;52.690;6.268;2022-11-25T15:56:34;9.90;99.90
59660;DHT22;45534;52.690;6.268;2022-11-25T15:59:02;9.80;99.90
59660;DHT22;45534;52.690;6.268;2022-11-25T16:01:28;9.70;99.90
59660;DHT22;45534;52.690;6.268;2022-11-25T16:04:09;9.70;99.90
59660;DHT22;45534;52.690;6.268;2022-11-25T16:06:35;9.60;99.90
59660;DHT22;45534;52.690;6.268;2022-11-25T16:09:04;9.60;99.90
59660;DHT22;45534;52.690;6.268;2022-11-25T16:11:45;9.50;99.90
59660;DHT22;45534;52.690;6.268;2022-11-25T16:14:25;9.50;99.90
59660;DHT22;45534;52.690;6.268;2022-11-25T16:17:02;9.40;99.90
59660;DHT22;45534;52.690;6.268;2022-11-25T16:19:33;9.40;99.90
59660;DHT22;45534;52.690;6.268;2022-11-25T16:22:01;9.30;99.90
59660;DHT22;45534;52.690;6.268;2022-11-25T16:24:37;9.20;99.90
59660;DHT22;45534;52.690;6.268;2022-11-25T16:29:48;9.20;99.90
59660;DHT22;45534;52.690;6.268;2022-11-25T16:32:17;9.10;99.90
59660;DHT22;45534;52.690;6.268;2022-11-25T16:34:43;9.10;99.90
59660;DHT22;45534;52.690;6.268;2022-11-25T16:37:09;9.00;99.90
59660;DHT22;45534;52.690;6.268;2022-11-25T16:39:35;9.00;99.90
59660;DHT22;45534;52.690;6.268;2022-11-25T16:42:01;8.90;99.90
59660;DHT22;45534;52.690;6.268;2022-11-25T16:44:30;8.80;99.90
59660;DHT22;45534;52.690;6.268;2022-11-25T16:46:57;8.80;99.90
59660;DHT22;45534;52.690;6.268;2022-11-25T16:49:27;8.70;99.90
59660;DHT22;45534;52.690;6.268;2022-11-25T16:51:53;8.70;99.90
59660;DHT22;45534;52.690;6.268;2022-11-25T16:54:20;8.60;99.90
59660;DHT22;45534;52.690;6.268;2022-11-25T16:56:50;8.50;99.90
59660;DHT22;45534;52.690;6.268;2022-11-25T16:59:19;8.50;99.90
59660;DHT22;45534;52.690;6.268;2022-11-25T17:01:47;8.50;99.90
59660;DHT22;45534;52.690;6.268;2022-11-25T17:04:13;8.50;99.90
59660;DHT22;45534;52.690;6.268;2022-11-25T17:06:39;8.40;99.90
59660;DHT22;45534;52.690;6.268;2022-11-25T17:09:06;8.40;99.90
59660;DHT22;45534;52.690;6.268;2022-11-25T17:11:44;8.30;99.90
59660;DHT22;45534;52.690;6.268;2022-11-25T17:14:24;8.30;99.90
59660;DHT22;45534;52.690;6.268;2022-11-25T17:16:52;8.20;99.90
59660;DHT22;45534;52.690;6.268;2022-11-25T17:19:17;8.20;99.90
59660;DHT22;45534;52.690;6.268;2022-11-25T17:21:43;8.20;99.90
59660;DHT22;45534;52.690;6.268;2022-11-25T17:24:20;8.20;99.90
59660;DHT22;45534;52.690;6.268;2022-11-25T17:27:02;8.10;99.90
59660;DHT22;45534;52.690;6.268;2022-11-25T17:29:38;8.10;99.90
59660;DHT22;45534;52.690;6.268;2022-11-25T17:32:05;8.10;99.90
59660;DHT22;45534;52.690;6.268;2022-11-25T17:34:30;8.10;99.90
59660;DHT22;45534;52.690;6.268;2022-11-25T17:36:57;8.10;99.90
59660;DHT22;45534;52.690;6.268;2022-11-25T17:39:23;8.10;99.90
59660;DHT22;45534;52.690;6.268;2022-11-25T17:41:50;8.10;99.90
59660;DHT22;45534;52.690;6.268;2022-11-25T17:44:25;8.10;99.90
59660;DHT22;45534;52.690;6.268;2022-11-25T17:46:51;8.10;99.90
59660;DHT22;45534;52.690;6.268;2022-11-25T17:49:18;8.20;99.90
59660;DHT22;45534;52.690;6.268;2022-11-25T17:51:43;8.20;99.90
59660;DHT22;45534;52.690;6.268;2022-11-25T17:54:09;8.20;99.90
59660;DHT22;45534;52.690;6.268;2022-11-25T17:56:35;8.20;99.90
59660;DHT22;45534;52.690;6.268;2022-11-25T17:59:05;8.20;99.90
59660;DHT22;45534;52.690;6.268;2022-11-25T18:01:34;8.20;99.90
59660;DHT22;45534;52.690;6.268;2022-11-25T18:04:16;8.10;99.90
59660;DHT22;45534;52.690;6.268;2022-11-25T18:06:44;8.20;99.90
59660;DHT22;45534;52.690;6.268;2022-11-25T18:09:10;8.10;99.90
59660;DHT22;45534;52.690;6.268;2022-11-25T18:11:37;8.10;99.90
59660;DHT22;45534;52.690;6.268;2022-11-25T18:14:03;8.20;99.90
59660;DHT22;45534;52.690;6.268;2022-11-25T18:16:29;8.20;99.90
59660;DHT22;45534;52.690;6.268;2022-11-25T18:18:56;8.10;99.90
59660;DHT22;45534;52.690;6.268;2022-11-25T18:21:22;8.10;99.90
59660;DHT22;45534;52.690;6.268;2022-11-25T18:23:51;8.10;99.90